sensor_id;sensor_type;location;lat;lon;timestamp;pressure;altitude;pressure_sealevel;temperature;humidity
71966;BME280;59836;52.132;5.442;2023-05-14T00:00:20;102088.53;;;13.93;76.76
71966;BME280;59836;52.132;5.442;2023-05-14T00:02:47;102084.41;;;13.90;77.64
71966;BME280;59836;52.132;5.442;2023-05-14T00:05:14;102079.50;;;13.87;77.14
71966;BME280;59836;52.132;5.442;2023-05-14T00:07:40;102090.41;;;13.87;77.59
71966;BME280;59836;52.132;5.442;2023-05-14T00:10:07;102080.25;;;13.77;77.98
71966;BME280;59836;52.132;5.442;2023-05-14T00:12:34;102070.94;;;13.73;78.42
71966;BME280;59836;52.132;5.442;2023-05-14T00:15:00;102071.78;;;13.73;78.29
71966;BME280;59836;52.132;5.442;2023-05-14T00:17:26;102073.09;;;13.71;78.15
71966;BME280;59836;52.132;5.442;2023-05-14T00:19:53;102064.13;;;13.70;78.15
71966;BME280;59836;52.132;5.442;2023-05-14T00:22:19;102066.53;;;13.67;78.24
71966;BME280;59836;52.132;5.442;2023-05-14T00:24:46;102064.09;;;13.65;78.53
71966;BME280;59836;52.132;5.442;2023-05-14T00:27:12;102067.56;;;13.61;78.82
71966;BME280;59836;52.132;5.442;2023-05-14T00:29:39;102066.19;;;13.58;78.60
71966;BME280;59836;52.132;5.442;2023-05-14T00:32:05;102062.06;;;13.55;78.70
71966;BME280;59836;52.132;5.442;2023-05-14T00:34:32;102062.59;;;13.52;78.81
71966;BME280;59836;52.132;5.442;2023-05-14T00:36:58;102052.78;;;13.51;78.83
71966;BME280;59836;52.132;5.442;2023-05-14T00:39:25;102055.50;;;13.51;78.63
71966;BME280;59836;52.132;5.442;2023-05-14T00:41:51;102056.28;;;13.47;79.15
71966;BME280;59836;52.132;5.442;2023-05-14T00:44:17;102047.78;;;13.43;79.36
71966;BME280;59836;52.132;5.442;2023-05-14T00:46:44;102058.69;;;13.43;79.27
71966;BME280;59836;52.132;5.442;2023-05-14T00:49:10;102043.44;;;13.42;79.04
71966;BME280;59836;52.132;5.442;2023-05-14T00:51:37;102035.72;;;13.39;79.74
71966;BME280;59836;52.132;5.442;2023-05-14T00:54:04;102045.00;;;13.38;79.68
71966;BME280;59836;52.132;5.442;2023-05-14T00:56:31;102034.59;;;13.35;80.05
71966;BME280;59836;52.132;5.442;2023-05-14T00:58:58;102027.78;;;13.32;80.04
71966;BME280;59836;52.132;5.442;2023-05-14T01:01:24;102025.88;;;13.33;80.32
71966;BME280;59836;52.132;5.442;2023-05-14T01:03:54;102026.91;;;13.26;80.35
71966;BME280;59836;52.132;5.442;2023-05-14T01:06:35;102031.81;;;13.24;79.75
71966;BME280;59836;52.132;5.442;2023-05-14T01:09:12;102029.63;;;13.21;80.47
71966;BME280;59836;52.132;5.442;2023-05-14T01:11:51;102036.91;;;13.16;80.58
71966;BME280;59836;52.132;5.442;2023-05-14T01:14:33;102029.56;;;13.16;80.69
71966;BME280;59836;52.132;5.442;2023-05-14T01:17:01;102027.34;;;13.13;80.31
71966;BME280;59836;52.132;5.442;2023-05-14T01:19:36;102033.00;;;13.06;80.71
71966;BME280;59836;52.132;5.442;2023-05-14T01:22:03;102027.53;;;13.06;80.95
71966;BME280;59836;52.132;5.442;2023-05-14T01:24:29;102028.31;;;13.02;80.87
71966;BME280;59836;52.132;5.442;2023-05-14T01:27:02;102028.06;;;13.03;80.49
71966;BME280;59836;52.132;5.442;2023-05-14T01:29:33;102029.41;;;13.01;80.97
71966;BME280;59836;52.132;5.442;2023-05-14T01:32:05;102022.81;;;12.96;80.92
71966;BME280;59836;52.132;5.442;2023-05-14T01:34:34;102032.06;;;12.95;81.15
71966;BME280;59836;52.132;5.442;2023-05-14T01:37:01;102027.13;;;12.92;81.37
71966;BME280;59836;52.132;5.442;2023-05-14T01:39:30;102034.22;;;12.93;81.24
71966;BME280;59836;52.132;5.442;2023-05-14T01:41:58;102035.25;;;12.87;81.57
71966;BME280;59836;52.132;5.442;2023-05-14T01:44:25;102031.97;;;12.85;81.61
71966;BME280;59836;52.132;5.442;2023-05-14T01:46:52;102019.94;;;12.81;81.59
71966;BME280;59836;52.132;5.442;2023-05-14T01:49:18;102029.75;;;12.82;81.23
71966;BME280;59836;52.132;5.442;2023-05-14T01:51:44;102011.19;;;12.79;81.52
71966;BME280;59836;52.132;5.442;2023-05-14T01:54:11;102012.84;;;12.80;81.59
71966;BME280;59836;52.132;5.442;2023-05-14T01:56:37;102012.84;;;12.80;81.33
71966;BME280;59836;52.132;5.442;2023-05-14T01:59:04;102018.22;;;12.75;81.88
71966;BME280;59836;52.132;5.442;2023-05-14T02:01:30;102006.00;;;12.77;81.20
71966;BME280;59836;52.132;5.442;2023-05-14T02:03:56;102014.94;;;12.73;81.55
71966;BME280;59836;52.132;5.442;2023-05-14T02:06:23;102014.38;;;12.70;82.00
71966;BME280;59836;52.132;5.442;2023-05-14T02:08:49;102000.78;;;12.70;82.00
71966;BME280;59836;52.132;5.442;2023-05-14T02:11:16;101996.91;;;12.66;82.15
71966;BME280;59836;52.132;5.442;2023-05-14T02:13:42;101997.75;;;12.67;82.04
71966;BME280;59836;52.132;5.442;2023-05-14T02:16:09;101988.19;;;12.64;81.93
71966;BME280;59836;52.132;5.442;2023-05-14T02:18:35;101985.47;;;12.64;81.89
71966;BME280;59836;52.132;5.442;2023-05-14T02:21:01;101993.63;;;12.64;82.25
71966;BME280;59836;52.132;5.442;2023-05-14T02:23:28;102002.88;;;12.63;81.75
71966;BME280;59836;52.132;5.442;2023-05-14T02:26:06;102002.25;;;12.56;82.13
71966;BME280;59836;52.132;5.442;2023-05-14T02:28:33;102000.09;;;12.58;82.54
71966;BME280;59836;52.132;5.442;2023-05-14T02:31:00;102004.97;;;12.56;82.28
71966;BME280;59836;52.132;5.442;2023-05-14T02:33:26;101996.22;;;12.54;82.16
71966;BME280;59836;52.132;5.442;2023-05-14T02:35:53;101989.66;;;12.50;82.63
71966;BME280;59836;52.132;5.442;2023-05-14T02:38:19;101990.66;;;12.44;82.72
71966;BME280;59836;52.132;5.442;2023-05-14T02:40:46;101988.72;;;12.39;82.78
71966;BME280;59836;52.132;5.442;2023-05-14T02:43:12;101987.94;;;12.44;82.85
71966;BME280;59836;52.132;5.442;2023-05-14T02:45:39;101984.66;;;12.42;82.83
71966;BME280;59836;52.132;5.442;2023-05-14T02:48:05;101980.56;;;12.39;82.70
71966;BME280;59836;52.132;5.442;2023-05-14T02:50:31;101989.28;;;12.41;82.88
71966;BME280;59836;52.132;5.442;2023-05-14T02:52:58;101982.94;;;12.35;82.66
71966;BME280;59836;52.132;5.442;2023-05-14T02:55:25;101980.22;;;12.35;82.68
71966;BME280;59836;52.132;5.442;2023-05-14T02:57:51;101985.16;;;12.38;82.93
71966;BME280;59836;52.132;5.442;2023-05-14T03:00:18;101978.91;;;12.38;82.59
71966;BME280;59836;52.132;5.442;2023-05-14T03:02:45;101981.56;;;12.33;83.05
71966;BME280;59836;52.132;5.442;2023-05-14T03:05:12;101981.75;;;12.26;83.24
71966;BME280;59836;52.132;5.442;2023-05-14T03:07:38;101982.88;;;12.30;83.21
71966;BME280;59836;52.132;5.442;2023-05-14T03:10:05;101975.78;;;12.29;82.97
71966;BME280;59836;52.132;5.442;2023-05-14T03:12:31;101976.34;;;12.31;83.06
71966;BME280;59836;52.132;5.442;2023-05-14T03:14:58;101971.19;;;12.30;83.06
71966;BME280;59836;52.132;5.442;2023-05-14T03:17:24;101972.56;;;12.32;82.92
71966;BME280;59836;52.132;5.442;2023-05-14T03:19:51;101982.63;;;12.32;82.93
71966;BME280;59836;52.132;5.442;2023-05-14T03:22:17;101986.44;;;12.31;83.07
71966;BME280;59836;52.132;5.442;2023-05-14T03:24:43;101977.94;;;12.27;83.00
71966;BME280;59836;52.132;5.442;2023-05-14T03:27:10;101974.84;;;12.18;83.50
71966;BME280;59836;52.132;5.442;2023-05-14T03:29:36;101975.34;;;12.15;83.72
71966;BME280;59836;52.132;5.442;2023-05-14T03:32:03;101970.56;;;12.22;83.62
71966;BME280;59836;52.132;5.442;2023-05-14T03:34:29;101979.53;;;12.23;83.26
71966;BME280;59836;52.132;5.442;2023-05-14T03:36:56;101969.91;;;12.15;83.78
71966;BME280;59836;52.132;5.442;2023-05-14T03:39:22;101979.50;;;12.18;83.49
71966;BME280;59836;52.132;5.442;2023-05-14T03:41:48;101979.78;;;12.21;83.11
71966;BME280;59836;52.132;5.442;2023-05-14T03:44:15;101978.06;;;12.15;83.61
71966;BME280;59836;52.132;5.442;2023-05-14T03:46:41;101971.75;;;12.09;84.10
71966;BME280;59836;52.132;5.442;2023-05-14T03:49:08;101985.53;;;12.03;83.80
71966;BME280;59836;52.132;5.442;2023-05-14T03:51:34;101975.06;;;11.94;84.05
71966;BME280;59836;52.132;5.442;2023-05-14T03:54:02;101970.63;;;11.88;84.94
71966;BME280;59836;52.132;5.442;2023-05-14T03:56:28;101968.31;;;11.97;84.77
71966;BME280;59836;52.132;5.442;2023-05-14T03:58:54;101969.47;;;12.01;84.55
71966;BME280;59836;52.132;5.442;2023-05-14T04:01:21;101958.00;;;11.99;84.65
71966;BME280;59836;52.132;5.442;2023-05-14T04:03:47;101965.19;;;12.05;84.18
71966;BME280;59836;52.132;5.442;2023-05-14T04:06:14;101966.31;;;12.09;84.21
71966;BME280;59836;52.132;5.442;2023-05-14T04:08:41;101958.84;;;12.00;84.58
71966;BME280;59836;52.132;5.442;2023-05-14T04:11:07;101957.44;;;11.97;84.94
71966;BME280;59836;52.132;5.442;2023-05-14T04:13:34;101959.19;;;12.03;84.72
71966;BME280;59836;52.132;5.442;2023-05-14T04:16:00;101953.81;;;12.08;84.36
71966;BME280;59836;52.132;5.442;2023-05-14T04:18:26;101953.22;;;12.06;84.64
71966;BME280;59836;52.132;5.442;2023-05-14T04:20:53;101956.75;;;12.07;84.53
71966;BME280;59836;52.132;5.442;2023-05-14T04:23:20;101960.72;;;11.99;84.56
71966;BME280;59836;52.132;5.442;2023-05-14T04:25:46;101959.06;;;11.98;84.72
71966;BME280;59836;52.132;5.442;2023-05-14T04:28:13;101963.53;;;12.04;84.78
71966;BME280;59836;52.132;5.442;2023-05-14T04:30:40;101953.22;;;12.06;84.49
71966;BME280;59836;52.132;5.442;2023-05-14T04:33:06;101954.88;;;12.07;84.75
71966;BME280;59836;52.132;5.442;2023-05-14T04:35:33;101951.03;;;12.03;84.66
71966;BME280;59836;52.132;5.442;2023-05-14T04:37:59;101952.66;;;12.04;84.92
71966;BME280;59836;52.132;5.442;2023-05-14T04:40:25;101957.59;;;12.07;84.58
71966;BME280;59836;52.132;5.442;2023-05-14T04:42:52;101960.56;;;12.06;84.87
71966;BME280;59836;52.132;5.442;2023-05-14T04:45:19;101962.19;;;12.07;84.63
71966;BME280;59836;52.132;5.442;2023-05-14T04:47:45;101955.44;;;12.09;85.00
71966;BME280;59836;52.132;5.442;2023-05-14T04:50:12;101962.41;;;12.00;85.38
71966;BME280;59836;52.132;5.442;2023-05-14T04:52:39;101952.16;;;12.07;85.01
71966;BME280;59836;52.132;5.442;2023-05-14T04:55:05;101954.94;;;12.13;85.05
71966;BME280;59836;52.132;5.442;2023-05-14T04:57:32;101958.41;;;12.08;85.19
71966;BME280;59836;52.132;5.442;2023-05-14T04:59:58;101961.47;;;12.12;85.20
71966;BME280;59836;52.132;5.442;2023-05-14T05:02:25;101957.72;;;12.18;85.25
71966;BME280;59836;52.132;5.442;2023-05-14T05:04:51;101959.38;;;12.19;85.14
71966;BME280;59836;52.132;5.442;2023-05-14T05:07:17;101966.13;;;12.16;85.03
71966;BME280;59836;52.132;5.442;2023-05-14T05:09:44;101962.84;;;12.14;85.24
71966;BME280;59836;52.132;5.442;2023-05-14T05:12:10;101965.31;;;12.16;85.31
71966;BME280;59836;52.132;5.442;2023-05-14T05:14:37;101960.69;;;12.16;84.64
71966;BME280;59836;52.132;5.442;2023-05-14T05:17:03;101968.03;;;12.16;85.45
71966;BME280;59836;52.132;5.442;2023-05-14T05:19:30;101966.13;;;12.16;85.35
71966;BME280;59836;52.132;5.442;2023-05-14T05:22:08;101964.81;;;12.19;85.45
71966;BME280;59836;52.132;5.442;2023-05-14T05:24:35;101964.81;;;12.19;85.62
71966;BME280;59836;52.132;5.442;2023-05-14T05:27:01;101963.66;;;12.15;85.42
71966;BME280;59836;52.132;5.442;2023-05-14T05:29:28;101976.44;;;12.14;85.84
71966;BME280;59836;52.132;5.442;2023-05-14T05:31:55;101973.00;;;12.24;85.82
71966;BME280;59836;52.132;5.442;2023-05-14T05:34:21;101978.00;;;12.32;85.67
71966;BME280;59836;52.132;5.442;2023-05-14T05:36:48;101974.22;;;12.33;85.23
71966;BME280;59836;52.132;5.442;2023-05-14T05:39:14;101979.28;;;12.24;85.65
71966;BME280;59836;52.132;5.442;2023-05-14T05:41:41;101979.78;;;12.21;85.94
71966;BME280;59836;52.132;5.442;2023-05-14T05:44:07;101966.25;;;12.27;85.79
71966;BME280;59836;52.132;5.442;2023-05-14T05:46:34;101973.34;;;12.28;86.22
71966;BME280;59836;52.132;5.442;2023-05-14T05:49:00;101966.63;;;12.35;86.27
71966;BME280;59836;52.132;5.442;2023-05-14T05:51:26;101987.31;;;12.36;86.00
71966;BME280;59836;52.132;5.442;2023-05-14T05:53:53;101980.22;;;12.35;86.17
71966;BME280;59836;52.132;5.442;2023-05-14T05:56:19;101978.84;;;12.33;86.20
71966;BME280;59836;52.132;5.442;2023-05-14T05:58:47;101982.72;;;12.37;86.43
71966;BME280;59836;52.132;5.442;2023-05-14T06:01:13;101978.00;;;12.32;86.67
71966;BME280;59836;52.132;5.442;2023-05-14T06:03:40;101983.50;;;12.37;86.18
71966;BME280;59836;52.132;5.442;2023-05-14T06:06:06;101984.72;;;12.47;86.58
71966;BME280;59836;52.132;5.442;2023-05-14T06:08:32;101978.75;;;12.50;86.04
71966;BME280;59836;52.132;5.442;2023-05-14T06:10:59;101990.72;;;12.49;86.48
71966;BME280;59836;52.132;5.442;2023-05-14T06:13:25;101986.41;;;12.53;85.84
71966;BME280;59836;52.132;5.442;2023-05-14T06:15:52;101971.94;;;12.47;86.18
71966;BME280;59836;52.132;5.442;2023-05-14T06:18:18;101987.75;;;12.50;86.51
71966;BME280;59836;52.132;5.442;2023-05-14T06:20:44;101986.75;;;12.57;86.46
71966;BME280;59836;52.132;5.442;2023-05-14T06:23:11;101977.81;;;12.61;86.60
71966;BME280;59836;52.132;5.442;2023-05-14T06:25:37;101978.69;;;12.67;86.90
71966;BME280;59836;52.132;5.442;2023-05-14T06:28:04;101988.44;;;12.63;86.44
71966;BME280;59836;52.132;5.442;2023-05-14T06:30:30;102008.38;;;12.68;86.60
71966;BME280;59836;52.132;5.442;2023-05-14T06:32:56;102007.75;;;12.61;86.81
71966;BME280;59836;52.132;5.442;2023-05-14T06:35:23;102007.78;;;12.66;86.94
71966;BME280;59836;52.132;5.442;2023-05-14T06:37:49;101976.56;;;12.74;86.82
71966;BME280;59836;52.132;5.442;2023-05-14T06:40:16;101979.84;;;12.76;86.73
71966;BME280;59836;52.132;5.442;2023-05-14T06:42:42;101984.59;;;12.86;86.44
71966;BME280;59836;52.132;5.442;2023-05-14T06:45:09;101983.97;;;12.79;86.55
71966;BME280;59836;52.132;5.442;2023-05-14T06:47:36;101987.56;;;12.84;86.32
71966;BME280;59836;52.132;5.442;2023-05-14T06:50:02;101999.41;;;12.95;86.45
71966;BME280;59836;52.132;5.442;2023-05-14T06:52:29;101985.88;;;13.06;85.95
71966;BME280;59836;52.132;5.442;2023-05-14T06:54:55;101977.19;;;13.09;85.57
71966;BME280;59836;52.132;5.442;2023-05-14T06:57:22;101979.97;;;13.14;85.85
71966;BME280;59836;52.132;5.442;2023-05-14T06:59:48;101975.94;;;13.22;86.05
71966;BME280;59836;52.132;5.442;2023-05-14T07:02:14;101977.34;;;13.29;85.17
71966;BME280;59836;52.132;5.442;2023-05-14T07:04:41;101979.03;;;13.36;85.70
71966;BME280;59836;52.132;5.442;2023-05-14T07:07:07;101974.16;;;13.38;85.26
71966;BME280;59836;52.132;5.442;2023-05-14T07:09:35;101973.03;;;13.34;85.15
71966;BME280;59836;52.132;5.442;2023-05-14T07:12:02;101978.78;;;13.37;85.80
71966;BME280;59836;52.132;5.442;2023-05-14T07:14:28;101979.66;;;13.43;85.59
71966;BME280;59836;52.132;5.442;2023-05-14T07:16:55;101982.38;;;13.43;85.61
71966;BME280;59836;52.132;5.442;2023-05-14T07:19:22;101983.56;;;13.52;85.40
71966;BME280;59836;52.132;5.442;2023-05-14T07:21:48;101978.66;;;13.54;85.50
71966;BME280;59836;52.132;5.442;2023-05-14T07:24:15;101981.41;;;13.60;84.83
71966;BME280;59836;52.132;5.442;2023-05-14T07:26:42;101979.28;;;13.67;84.49
71966;BME280;59836;52.132;5.442;2023-05-14T07:29:08;101974.13;;;13.65;83.94
71966;BME280;59836;52.132;5.442;2023-05-14T07:31:35;101974.41;;;13.69;84.09
71966;BME280;59836;52.132;5.442;2023-05-14T07:34:01;101970.09;;;13.78;84.42
71966;BME280;59836;52.132;5.442;2023-05-14T07:36:28;101971.78;;;13.84;84.53
71966;BME280;59836;52.132;5.442;2023-05-14T07:38:54;101973.69;;;13.89;83.85
71966;BME280;59836;52.132;5.442;2023-05-14T07:41:20;101981.38;;;13.97;83.12
71966;BME280;59836;52.132;5.442;2023-05-14T07:43:47;101984.94;;;13.98;83.94
71966;BME280;59836;52.132;5.442;2023-05-14T07:46:13;101978.69;;;14.02;83.73
71966;BME280;59836;52.132;5.442;2023-05-14T07:48:40;101970.25;;;14.04;83.63
71966;BME280;59836;52.132;5.442;2023-05-14T07:51:06;101961.56;;;14.12;83.83
71966;BME280;59836;52.132;5.442;2023-05-14T07:53:33;101966.22;;;14.22;83.77
71966;BME280;59836;52.132;5.442;2023-05-14T07:55:59;101962.44;;;14.28;83.71
71966;BME280;59836;52.132;5.442;2023-05-14T07:58:25;101966.53;;;14.36;84.02
71966;BME280;59836;52.132;5.442;2023-05-14T08:00:53;101963.81;;;14.41;83.71
71966;BME280;59836;52.132;5.442;2023-05-14T08:03:19;101961.94;;;14.47;83.72
71966;BME280;59836;52.132;5.442;2023-05-14T08:05:46;101958.94;;;14.49;83.05
71966;BME280;59836;52.132;5.442;2023-05-14T08:08:12;101962.78;;;14.53;83.89
71966;BME280;59836;52.132;5.442;2023-05-14T08:10:39;101967.13;;;14.54;83.69
71966;BME280;59836;52.132;5.442;2023-05-14T08:13:05;101965.50;;;14.58;83.89
71966;BME280;59836;52.132;5.442;2023-05-14T08:15:32;101966.06;;;14.60;83.74
71966;BME280;59836;52.132;5.442;2023-05-14T08:17:58;101960.06;;;14.63;83.74
71966;BME280;59836;52.132;5.442;2023-05-14T08:20:29;101955.44;;;14.69;84.62
71966;BME280;59836;52.132;5.442;2023-05-14T08:22:56;101959.59;;;14.76;84.20
71966;BME280;59836;52.132;5.442;2023-05-14T08:25:26;101958.50;;;14.83;84.64
71966;BME280;59836;52.132;5.442;2023-05-14T08:27:53;101961.25;;;14.88;84.20
71966;BME280;59836;52.132;5.442;2023-05-14T08:30:20;101958.53;;;14.98;83.93
71966;BME280;59836;52.132;5.442;2023-05-14T08:32:48;101952.53;;;15.07;84.19
71966;BME280;59836;52.132;5.442;2023-05-14T08:35:15;101943.22;;;15.13;83.60
71966;BME280;59836;52.132;5.442;2023-05-14T08:37:41;101955.50;;;15.15;83.71
71966;BME280;59836;52.132;5.442;2023-05-14T08:40:08;101944.88;;;15.19;82.86
71966;BME280;59836;52.132;5.442;2023-05-14T08:42:37;101955.25;;;15.22;83.48
71966;BME280;59836;52.132;5.442;2023-05-14T08:45:12;101947.31;;;15.31;83.65
71966;BME280;59836;52.132;5.442;2023-05-14T08:47:41;101945.97;;;15.33;83.08
71966;BME280;59836;52.132;5.442;2023-05-14T08:50:09;101930.63;;;15.38;82.26
71966;BME280;59836;52.132;5.442;2023-05-14T08:52:36;101939.91;;;15.47;82.64
71966;BME280;59836;52.132;5.442;2023-05-14T08:55:04;101936.63;;;15.50;82.05
71966;BME280;59836;52.132;5.442;2023-05-14T08:57:32;101932.50;;;15.58;81.82
71966;BME280;59836;52.132;5.442;2023-05-14T08:59:59;101942.06;;;15.65;81.95
71966;BME280;59836;52.132;5.442;2023-05-14T09:02:28;101943.69;;;15.67;81.66
71966;BME280;59836;52.132;5.442;2023-05-14T09:04:57;101927.28;;;15.67;81.13
71966;BME280;59836;52.132;5.442;2023-05-14T09:07:24;101933.84;;;15.71;80.74
71966;BME280;59836;52.132;5.442;2023-05-14T09:09:52;101927.81;;;15.69;80.59
71966;BME280;59836;52.132;5.442;2023-05-14T09:12:19;101927.56;;;15.70;80.45
71966;BME280;59836;52.132;5.442;2023-05-14T09:14:47;101924.53;;;15.72;80.12
71966;BME280;59836;52.132;5.442;2023-05-14T09:17:14;101921.81;;;15.72;80.07
71966;BME280;59836;52.132;5.442;2023-05-14T09:19:41;101927.56;;;15.70;79.89
71966;BME280;59836;52.132;5.442;2023-05-14T09:22:11;101922.38;;;15.63;79.92
71966;BME280;59836;52.132;5.442;2023-05-14T09:24:38;101913.59;;;15.72;80.59
71966;BME280;59836;52.132;5.442;2023-05-14T09:27:05;101914.69;;;15.76;80.40
71966;BME280;59836;52.132;5.442;2023-05-14T09:29:32;101908.09;;;15.82;80.56
71966;BME280;59836;52.132;5.442;2023-05-14T09:31:59;101914.94;;;15.90;80.17
71966;BME280;59836;52.132;5.442;2023-05-14T09:34:33;101911.38;;;15.94;79.66
71966;BME280;59836;52.132;5.442;2023-05-14T09:37:05;101907.53;;;15.96;79.58
71966;BME280;59836;52.132;5.442;2023-05-14T09:39:32;101906.94;;;16.04;79.80
71966;BME280;59836;52.132;5.442;2023-05-14T09:41:59;101908.84;;;16.03;79.55
71966;BME280;59836;52.132;5.442;2023-05-14T09:44:26;101904.44;;;16.13;79.53
71966;BME280;59836;52.132;5.442;2023-05-14T09:46:53;101895.66;;;16.16;79.62
71966;BME280;59836;52.132;5.442;2023-05-14T09:49:20;101897.84;;;16.19;79.27
71966;BME280;59836;52.132;5.442;2023-05-14T09:51:50;101898.31;;;16.31;78.65
71966;BME280;59836;52.132;5.442;2023-05-14T09:54:16;101895.31;;;16.33;78.23
71966;BME280;59836;52.132;5.442;2023-05-14T09:56:43;101901.34;;;16.30;78.54
71966;BME280;59836;52.132;5.442;2023-05-14T09:59:09;101894.19;;;16.39;78.18
71966;BME280;59836;52.132;5.442;2023-05-14T10:01:36;101891.13;;;16.46;78.89
71966;BME280;59836;52.132;5.442;2023-05-14T10:04:05;101892.44;;;16.48;77.68
71966;BME280;59836;52.132;5.442;2023-05-14T10:06:35;101890.25;;;16.50;77.71
71966;BME280;59836;52.132;5.442;2023-05-14T10:09:03;101886.91;;;16.59;78.11
71966;BME280;59836;52.132;5.442;2023-05-14T10:11:33;101888.50;;;16.65;77.45
71966;BME280;59836;52.132;5.442;2023-05-14T10:14:07;101884.97;;;16.64;76.78
71966;BME280;59836;52.132;5.442;2023-05-14T10:16:36;101885.78;;;16.65;77.06
71966;BME280;59836;52.132;5.442;2023-05-14T10:19:10;101886.34;;;16.62;76.80
71966;BME280;59836;52.132;5.442;2023-05-14T10:21:39;101881.34;;;16.69;76.75
71966;BME280;59836;52.132;5.442;2023-05-14T10:24:07;101879.09;;;16.76;76.88
71966;BME280;59836;52.132;5.442;2023-05-14T10:26:37;101878.56;;;16.74;77.19
71966;BME280;59836;52.132;5.442;2023-05-14T10:29:05;101874.16;;;16.78;77.41
71966;BME280;59836;52.132;5.442;2023-05-14T10:31:51;101864.53;;;16.86;76.96
71966;BME280;59836;52.132;5.442;2023-05-14T10:34:36;101868.59;;;16.89;77.34
71966;BME280;59836;52.132;5.442;2023-05-14T10:37:06;101871.28;;;16.94;77.04
71966;BME280;59836;52.132;5.442;2023-05-14T10:39:47;101878.13;;;16.96;76.37
71966;BME280;59836;52.132;5.442;2023-05-14T10:42:28;101866.34;;;17.01;75.34
71966;BME280;59836;52.132;5.442;2023-05-14T10:45:00;101867.38;;;17.05;76.33
71966;BME280;59836;52.132;5.442;2023-05-14T10:47:27;101869.25;;;17.10;76.04
71966;BME280;59836;52.132;5.442;2023-05-14T10:49:55;101860.75;;;17.11;75.57
71966;BME280;59836;52.132;5.442;2023-05-14T10:52:23;101850.25;;;17.19;76.25
71966;BME280;59836;52.132;5.442;2023-05-14T10:54:55;101859.72;;;17.32;75.97
71966;BME280;59836;52.132;5.442;2023-05-14T10:57:23;101858.34;;;17.34;75.56
71966;BME280;59836;52.132;5.442;2023-05-14T10:59:51;101855.28;;;17.36;75.24
71966;BME280;59836;52.132;5.442;2023-05-14T11:02:25;101846.25;;;17.35;74.49
71966;BME280;59836;52.132;5.442;2023-05-14T11:04:54;101843.72;;;17.39;75.04
71966;BME280;59836;52.132;5.442;2023-05-14T11:07:32;101839.56;;;17.47;74.65
71966;BME280;59836;52.132;5.442;2023-05-14T11:10:01;101844.44;;;17.50;74.25
71966;BME280;59836;52.132;5.442;2023-05-14T11:12:28;101843.31;;;17.51;74.50
71966;BME280;59836;52.132;5.442;2023-05-14T11:14:56;101847.41;;;17.53;74.08
71966;BME280;59836;52.132;5.442;2023-05-14T11:17:28;101835.56;;;17.58;73.01
71966;BME280;59836;52.132;5.442;2023-05-14T11:19:56;101838.88;;;17.55;73.76
71966;BME280;59836;52.132;5.442;2023-05-14T11:22:23;101831.13;;;17.62;72.42
71966;BME280;59836;52.132;5.442;2023-05-14T11:24:50;101832.69;;;17.68;72.24
71966;BME280;59836;52.132;5.442;2023-05-14T11:27:17;101827.66;;;17.76;73.51
71966;BME280;59836;52.132;5.442;2023-05-14T11:29:45;101824.84;;;17.81;73.25
71966;BME280;59836;52.132;5.442;2023-05-14T11:32:13;101826.66;;;17.91;73.84
71966;BME280;59836;52.132;5.442;2023-05-14T11:34:41;101819.75;;;17.93;73.81
71966;BME280;59836;52.132;5.442;2023-05-14T11:37:08;101815.84;;;17.99;74.06
71966;BME280;59836;52.132;5.442;2023-05-14T11:39:35;101812.50;;;18.03;72.87
71966;BME280;59836;52.132;5.442;2023-05-14T11:42:09;101812.72;;;18.06;72.37
71966;BME280;59836;52.132;5.442;2023-05-14T11:44:37;101800.34;;;18.09;72.17
71966;BME280;59836;52.132;5.442;2023-05-14T11:47:04;101809.16;;;18.06;72.69
71966;BME280;59836;52.132;5.442;2023-05-14T11:49:30;101803.38;;;18.07;72.84
71966;BME280;59836;52.132;5.442;2023-05-14T11:51:58;101795.44;;;18.06;73.24
71966;BME280;59836;52.132;5.442;2023-05-14T11:54:26;101801.97;;;18.10;73.14
71966;BME280;59836;52.132;5.442;2023-05-14T11:56:54;101802.19;;;18.13;73.11
71966;BME280;59836;52.132;5.442;2023-05-14T11:59:26;101805.44;;;18.15;72.15
71966;BME280;59836;52.132;5.442;2023-05-14T12:01:54;101803.53;;;18.16;71.95
71966;BME280;59836;52.132;5.442;2023-05-14T12:04:21;101801.00;;;18.20;72.45
71966;BME280;59836;52.132;5.442;2023-05-14T12:06:49;101797.88;;;18.26;72.71
71966;BME280;59836;52.132;5.442;2023-05-14T12:09:17;101796.97;;;18.31;73.17
71966;BME280;59836;52.132;5.442;2023-05-14T12:11:44;101787.63;;;18.32;71.61
71966;BME280;59836;52.132;5.442;2023-05-14T12:14:15;101788.00;;;18.25;72.15
71966;BME280;59836;52.132;5.442;2023-05-14T12:16:43;101784.66;;;18.28;69.35
71966;BME280;59836;52.132;5.442;2023-05-14T12:19:10;101785.19;;;18.31;70.90
71966;BME280;59836;52.132;5.442;2023-05-14T12:21:37;101786.22;;;18.35;71.37
71966;BME280;59836;52.132;5.442;2023-05-14T12:24:07;101785.38;;;18.34;70.59
71966;BME280;59836;52.132;5.442;2023-05-14T12:26:34;101780.72;;;18.35;70.28
71966;BME280;59836;52.132;5.442;2023-05-14T12:29:01;101787.84;;;18.36;70.85
71966;BME280;59836;52.132;5.442;2023-05-14T12:31:29;101776.47;;;18.42;69.20
71966;BME280;59836;52.132;5.442;2023-05-14T12:33:56;101780.03;;;18.43;70.48
71966;BME280;59836;52.132;5.442;2023-05-14T12:36:23;101773.44;;;18.44;70.51
71966;BME280;59836;52.132;5.442;2023-05-14T12:38:52;101773.94;;;18.46;69.05
71966;BME280;59836;52.132;5.442;2023-05-14T12:41:22;101760.22;;;18.46;68.94
71966;BME280;59836;52.132;5.442;2023-05-14T12:43:48;101754.91;;;18.50;71.87
71966;BME280;59836;52.132;5.442;2023-05-14T12:46:15;101761.66;;;18.57;70.78
71966;BME280;59836;52.132;5.442;2023-05-14T12:48:42;101759.94;;;18.62;70.02
71966;BME280;59836;52.132;5.442;2023-05-14T12:51:08;101761.28;;;18.64;70.31